PON weather

PoptĂșn Airport
PoptĂșn, Peten, Guatemala

Public forecast

Using degrees Celsius for public forecast. Weather courtesy of forecast.io.

METAR (pilot weather report)

Closest report is Mundo Maya International Airport, 43.8 nm (81.1 km) NW. Retrieved 2019/05/21 05:00 UTC (58 minutes ago):

MGMM 210500Z 09004KT CAVOK 26/21 Q1013 A2991

TAF (pilot weather forecast)

Forecast is more than 12 hours old.

Closest forecast is Mundo Maya International Airport, 43.8 nm (81.1 km) NW. Retrieved 2019/05/20 00:00 UTC (1 day ago):

TAF MGMM 202300Z 2100/2124 00000KT 9999 SCT016 TX38/2120Z TN23/2112Z BECMG 2110/2112 SCT012 BECMG 2115/2117 09008KT FEW018 TEMPO 2120/2124 SCT020TCU